One American Place, Louisiana
Current Conditions -  °F | °C
As of 8:53 AM on Friday 24 Oct 2014 (Local Time) from KBTR Reporting Station
Clear Clear  
Wind Chill: 56°   Ceiling: Unl
Heat Index: 56°   Visibility: 10mi
Dew Point: 49°   Wind: 5mph
Humidity: 77%   Direction: 20°NNE
Pressure: 30.14"   Gusts: NA
Location:  30.4285°N, 91.0224°W
Report Text: KBTR 241353Z 02004KT 10SM CLR 13/09 A3014 RMK AO2 SLP206 T01330094
Loading
Personal Weather Stations






























Interactive Weather Map New forecast layout! Learn more

10-Day Weather Forecast

Advertisements
Track Severe Weather on mobile